Meath Environmental Platform

Observations for Trim Patrick St

Time AQI Temp °C Hum % Pres Pa CO μg/m³ H₂S μg/m³ NO μg/m³ NO₂ μg/m³ O₃ μg/m³ SO₂ μg/m³ PM1 μg/m³ PM2.5 μg/m³ PM10 μg/m³
Sunday 2 August 2026
11:27 2 26 43 69,014 0 0 1.59 7.77 70.53 5.96 3.71 9.21 10.13
11:26 2 25.9 43 69,023 0 0 1.62 7.36 71.44 6.56 2.86 8.44 9.28
11:25 2 25.9 42 68,997 0 0 1.59 9.2 70.8 6.54 2.86 8.49 9.33
11:24 2 25.8 42 68,993 0 0 1.62 10.11 70.88 6.65 2.86 9.22 10.15
11:23 2 25.8 42 68,991 0 0 1.59 16.94 79.16 6.23 2.86 7.73 8.5
11:22 2 25.8 40 68,985 0 0 1.56 8.29 72.21 5.24 3.71 9.37 10.31
11:21 2 25.7 42 68,979 0 0 1.55 3.84 69.3 6.25 2.86 9.25 10.18
11:20 2 25.6 42 68,973 0 0 1.58 12.38 70.26 5.35 3.71 9.27 10.2
11:19 2 25.6 43 68,993 0 0 1.56 11.6 70.17 7.76 2.86 9.21 10.13
11:18 2 25.6 42 68,987 0 0 1.53 9.09 71.72 5.63 3.71 9.29 10.22
11:16 2 25.5 44 68,987 0 0 1.66 8.59 71.96 5.99 3.71 9.92 10.91
11:15 2 25.4 43 68,987 0 0 1.62 5.34 69.43 4.98 3.71 9.95 10.94
11:13 2 25.3 44 68,981 0 0 1.66 12.48 69.25 5.06 3.71 9.13 10.04
11:10 2 25.2 43 68,957 0 0 1.62 10.72 70.55 6.04 4.57 10.75 11.82
11:08 2 25.1 43 68,949 0 0 1.55 10.27 70.59 4.71 3.71 9.21 10.13
11:05 2 25 43 68,957 0 0 1.56 5.49 69.28 4.86 3.71 9.2 10.12
11:04 2 25 44 68,945 0 0 1.6 7.05 70.78 5.06 3.71 9.13 10.04
11:03 2 24.9 46 68,957 0 0 1.72 4.36 68.6 4.85 2.86 8.2 9.02
10:59 2 24.7 45 68,969 0 0 1.65 5.7 67.33 4.76 4.57 10.58 11.64
10:58 2 24.7 46 68,989 0 0 1.66 11.64 69.18 6.39 2.86 9.02 9.92